YPLM

Learmonth Airport

Exmouth, Australia
TAF YPLM 210502Z 2106/2206 29007KT CAVOK FM212000 26005KT 9999 SCT020 FM220300 29012KT 9999 -SHRA BKN030 INTER 2205/2206 4000 SHRA BKN015 PROB30 2118/2124 0300 FG
Issued Valid From Valid To
Jul-21 @ 05:02 UTC
(5 hours ago)
Jul-21 @ 06:00 UTC
(4 hours ago)
Jul-22 @ 06:00 UTC
(in 20 hours)
Jul-21 @ 06:00 to Jul-21 @ 20:00
TAF YPLM 210502Z 2106/2206 29007KT CAVOK
Wind Visibility Clouds Conditions
290° at 7 knots 10,000+ meters
  • No significant clouds
Probable  (Probability 30%) Jul-21 @ 18:00 to Jul-22 @ 00:00
PROB30 2118/2124 0300 FG
Visibility Conditions
306 meters
  • Fog
From Jul-21 @ 20:00 to Jul-22 @ 03:00
FM212000 26005KT 9999 SCT020
Wind Visibility Clouds
260° at 5 knots 10,000+ meters
  • Scattered at 2,000' AGL
From Jul-22 @ 03:00 to Jul-22 @ 06:00
FM220300 29012KT 9999 -SHRA BKN030
Wind Visibility Clouds Conditions
290° at 12 knots 10,000+ meters
  • Broken at 3,000' AGL
  • Light Rain
Temporary Jul-22 @ 05:00 to Jul-22 @ 06:00
INTER 2205/2206 4000 SHRA BKN015
Visibility Clouds Conditions
4,007 meters
  • Broken at 1,500' AGL
  • Rain
TAF YPLM 210502Z 2106/2206 29007KT CAVOK FM212000 26005KT 9999 SCT020 FM220300 29012KT 9999 -SHRA BKN030 INTER 2205/2206 4000 SHRA BKN015 PROB30 2118/2124 0300 FG
Issued Jul-21 @ 05:02 UTC
(5 hours ago)
Valid From Jul-21 @ 06:00 UTC
(4 hours ago)
Valid To Jul-22 @ 06:00 UTC
(in 20 hours)
Jul-21 @ 06:00 - Jul-21 @ 20:00
Wind Visibility
290° at 7 knots 10,000+ meters
Clouds
  • No significant clouds
Conditions
Probability 30% Probable Jul-21 @ 18:00 - Jul-22 @ 00:00
Conditions
  • Fog
From Jul-21 @ 20:00 - Jul-22 @ 03:00
Wind Visibility
260° at 5 knots 10,000+ meters
Clouds
  • Scattered at 2,000' AGL
From Jul-22 @ 03:00 - Jul-22 @ 06:00
Wind Visibility
290° at 12 knots 10,000+ meters
Clouds
  • Broken at 3,000' AGL
Conditions
  • Light Rain
Temporary Jul-22 @ 05:00 - Jul-22 @ 06:00
Clouds
  • Broken at 1,500' AGL
Conditions
  • Rain